Time;durP1;ratioP1;P1;durP2;ratioP2;P2;SDS_P1;SDS_P2;PMS_P1;PMS_P2;Temp;Humidity;BMP_temperature;BMP_pressure;BME280_temperature;BME280_humidity;BME280_pressure;Samples;Min_cycle;Max_cycle;Signal;HPM_P1;HPM_P2
2022/04/09 00:01:43;;;;;;;11.02;2.05;;;3.50;99.90;;;;;;2118260;67;20343;-78
2022/04/09 00:04:27;;;;;;;7.00;2.22;;;3.90;99.90;;;;;;2124482;67;20293;-78
2022/04/09 00:07:11;;;;;;;12.40;2.88;;;3.60;99.90;;;;;;2125299;67;20269;-79
2022/04/09 00:09:55;;;;;;;13.55;3.08;;;3.60;99.90;;;;;;2124365;67;20292;-79
2022/04/09 00:12:39;;;;;;;11.32;2.60;;;3.60;99.90;;;;;;2140019;66;20760;-80
2022/04/09 00:15:22;;;;;;;5.57;2.53;;;3.70;99.90;;;;;;2131832;67;20491;-79
2022/04/09 00:18:06;;;;;;;;;;;3.50;99.90;;;;;;2140171;66;20341;-79
2022/04/09 00:20:51;;;;;;;11.70;2.75;;;3.40;99.90;;;;;;2144728;66;20068;-78
2022/04/09 00:23:33;;;;;;;12.15;2.45;;;3.50;99.90;;;;;;2134873;67;20246;-78
2022/04/09 00:26:15;;;;;;;6.88;3.03;;;3.50;99.90;;;;;;2129235;67;20200;-79
2022/04/09 00:28:57;;;;;;;10.32;2.58;;;3.60;99.90;;;;;;2111833;67;20278;-78
2022/04/09 00:31:39;;;;;;;9.02;2.50;;;3.60;99.90;;;;;;2109053;67;20333;-78
2022/04/09 00:34:21;;;;;;;13.45;3.08;;;3.60;99.90;;;;;;2125074;67;20292;-78
2022/04/09 00:37:03;;;;;;;10.38;2.65;;;3.50;99.90;;;;;;2120759;67;20303;-78
2022/04/09 00:39:45;;;;;;;10.32;2.72;;;3.50;99.90;;;;;;2111867;67;20806;-79
2022/04/09 00:42:27;;;;;;;8.73;3.13;;;3.60;99.90;;;;;;2136130;67;20860;-78
2022/04/09 00:45:11;;;;;;;5.30;2.20;;;3.60;99.90;;;;;;2150182;66;20174;-78
2022/04/09 00:47:53;;;;;;;13.55;3.22;;;3.60;99.90;;;;;;2140006;66;20279;-78
2022/04/09 00:50:35;;;;;;;7.68;1.65;;;3.60;99.90;;;;;;2139452;66;20669;-78
2022/04/09 00:53:21;;;;;;;9.80;2.20;;;3.60;99.90;;;;;;2125646;67;20325;-78
2022/04/09 00:56:13;;;;;;;6.25;2.03;;;3.60;99.90;;;;;;2139980;67;20706;-78
2022/04/09 00:58:57;;;;;;;12.02;2.15;;;3.50;99.90;;;;;;2139873;67;20174;-78
2022/04/09 01:01:41;;;;;;;10.00;2.20;;;3.50;99.90;;;;;;2136074;67;20272;-77
2022/04/09 01:04:23;;;;;;;6.03;1.80;;;3.50;99.90;;;;;;2112461;67;20214;-77
2022/04/09 01:07:06;;;;;;;5.05;1.70;;;3.40;99.90;;;;;;2097873;68;20319;-78
2022/04/09 01:09:48;;;;;;;9.82;1.98;;;3.40;99.90;;;;;;2096380;68;20183;-78
2022/04/09 01:12:32;;;;;;;7.05;1.52;;;3.30;99.90;;;;;;2090901;68;20232;-77
2022/04/09 01:15:18;;;;;;;5.57;1.60;;;3.30;99.90;;;;;;2089735;68;20254;-78
2022/04/09 01:18:03;;;;;;;6.05;1.67;;;3.30;99.90;;;;;;2077744;68;20193;-77
2022/04/09 01:20:44;;;;;;;10.75;2.05;;;3.30;99.90;;;;;;2098577;68;20222;-78
2022/04/09 01:23:28;;;;;;;4.65;1.67;;;3.40;99.90;;;;;;2102628;67;20213;-77
2022/04/09 01:26:09;;;;;;;4.93;1.92;;;3.50;99.90;;;;;;2118158;67;20547;-77
2022/04/09 01:28:53;;;;;;;10.68;2.20;;;3.50;99.90;;;;;;2124580;67;20257;-78
2022/04/09 01:31:44;;;;;;;7.10;1.60;;;3.60;99.90;;;;;;2111984;67;20350;-78
2022/04/09 01:34:29;;;;;;;6.13;1.98;;;3.50;99.90;;;;;;2118693;67;20323;-78
2022/04/09 01:37:15;;;;;;;8.57;1.80;;;3.50;99.90;;;;;;2120389;67;20232;-77
2022/04/09 01:40:01;;;;;;;;;;;3.60;99.90;;;;;;2113600;67;20256;-78
2022/04/09 01:42:50;;;;;;;6.93;1.70;;;3.60;99.90;;;;;;2105020;68;20106;-78
2022/04/09 01:45:32;;;;;;;6.00;1.70;;;3.50;99.90;;;;;;2100488;67;20339;-78
2022/04/09 01:48:13;;;;;;;6.45;1.55;;;3.50;99.90;;;;;;2107141;67;20173;-78
2022/04/09 01:50:55;;;;;;;5.90;1.75;;;3.80;99.90;;;;;;2109364;67;20223;-79
2022/04/09 01:53:40;;;;;;;8.20;1.88;;;3.50;99.90;;;;;;2111719;67;20258;-77
2022/04/09 01:56:23;;;;;;;5.28;2.03;;;3.40;99.90;;;;;;2104984;67;20666;-77
2022/04/09 01:59:05;;;;;;;7.75;1.55;;;3.50;99.90;;;;;;2097885;68;20241;-78
2022/04/09 02:01:49;;;;;;;7.30;2.80;;;3.50;99.90;;;;;;2098403;68;20271;-78
2022/04/09 02:04:33;;;;;;;4.05;1.63;;;3.50;99.90;;;;;;2098758;68;20174;-77
2022/04/09 02:07:17;;;;;;;4.95;2.00;;;3.40;99.90;;;;;;2105063;68;20186;-79
2022/04/09 02:09:58;;;;;;;3.45;1.52;;;3.40;99.90;;;;;;2111390;67;20264;-78
2022/04/09 02:12:40;;;;;;;6.97;1.67;;;3.30;99.90;;;;;;2125204;67;20584;-77
2022/04/09 02:15:24;;;;;;;7.03;1.80;;;3.30;99.90;;;;;;2129912;67;20360;-77
2022/04/09 02:18:08;;;;;;;;;;;3.20;99.90;;;;;;2136372;67;20282;-77
2022/04/09 02:20:52;;;;;;;10.50;1.85;;;3.10;99.90;;;;;;2133634;66;20622;-78
2022/04/09 02:23:36;;;;;;;6.32;2.25;;;3.00;99.90;;;;;;2148271;66;20197;-77
2022/04/09 02:26:20;;;;;;;6.82;1.67;;;2.90;99.90;;;;;;2144835;66;20315;-77
2022/04/09 02:29:02;;;;;;;4.82;1.92;;;2.90;99.90;;;;;;2122781;67;20213;-77
2022/04/09 02:31:44;;;;;;;11.10;1.77;;;2.90;99.90;;;;;;2110955;67;20202;-77
2022/04/09 02:34:28;;;;;;;7.68;1.60;;;2.80;99.90;;;;;;2112079;67;20200;-77
2022/04/09 02:37:14;;;;;;;11.82;1.50;;;2.80;99.90;;;;;;2119233;67;20863;-77
2022/04/09 02:39:57;;;;;;;5.45;1.75;;;3.00;99.90;;;;;;2133498;67;20729;-78
2022/04/09 02:42:46;;;;;;;5.97;1.90;;;3.00;99.90;;;;;;2132002;67;20812;-79
2022/04/09 02:45:31;;;;;;;6.97;1.50;;;3.20;99.90;;;;;;2107526;67;20375;-78
2022/04/09 02:48:15;;;;;;;5.43;1.95;;;3.20;99.90;;;;;;2117928;67;20185;-78
2022/04/09 02:50:57;;;;;;;7.13;1.65;;;3.10;99.90;;;;;;2126770;67;20202;-78
2022/04/09 02:53:40;;;;;;;4.80;1.67;;;3.10;99.90;;;;;;2128110;67;20188;-78
2022/04/09 02:56:25;;;;;;;7.80;2.25;;;3.00;99.90;;;;;;2116120;67;20220;-77
2022/04/09 02:59:10;;;;;;;6.22;2.03;;;3.60;99.90;;;;;;2121945;67;20244;-78
2022/04/09 03:01:52;;;;;;;6.80;1.60;;;3.10;99.90;;;;;;2135106;67;20802;-79
2022/04/09 03:04:34;;;;;;;7.28;2.10;;;3.20;99.90;;;;;;2142850;67;20866;-78
2022/04/09 03:07:21;;;;;;;7.40;1.90;;;3.20;99.90;;;;;;2147468;66;20700;-77
2022/04/09 03:10:03;;;;;;;3.95;1.60;;;3.30;99.90;;;;;;2134898;67;20664;-77
2022/04/09 03:12:48;;;;;;;6.30;1.45;;;3.30;99.90;;;;;;2119682;67;20795;-79
2022/04/09 03:15:31;;;;;;;4.82;1.70;;;3.20;99.90;;;;;;2111780;67;20654;-78
2022/04/09 03:18:13;;;;;;;9.10;2.40;;;3.20;99.90;;;;;;2098834;68;20762;-78
2022/04/09 03:20:55;;;;;;;4.43;1.80;;;3.20;99.90;;;;;;2097540;68;20203;-77
2022/04/09 03:23:40;;;;;;;5.50;2.00;;;3.20;99.90;;;;;;2092684;68;20425;-76
2022/04/09 03:26:21;;;;;;;5.10;1.67;;;3.20;99.90;;;;;;2096551;68;20198;-76
2022/04/09 03:29:03;;;;;;;13.20;1.83;;;3.30;99.90;;;;;;2115783;67;20746;-77
2022/04/09 03:31:46;;;;;;;5.70;1.38;;;3.30;99.90;;;;;;2126622;67;20317;-78
2022/04/09 03:34:29;;;;;;;3.97;2.00;;;3.30;99.90;;;;;;2124597;67;20835;-77
2022/04/09 03:37:14;;;;;;;3.85;1.38;;;3.20;99.90;;;;;;2115515;67;20346;-77
2022/04/09 03:39:55;;;;;;;6.15;1.63;;;3.20;99.90;;;;;;2104613;67;20339;-78
2022/04/09 03:42:38;;;;;;;5.00;1.50;;;3.10;99.90;;;;;;2120675;67;20317;-77
2022/04/09 03:45:21;;;;;;;8.27;1.70;;;3.10;99.90;;;;;;2119729;67;20302;-77
2022/04/09 03:48:04;;;;;;;5.38;1.80;;;3.10;99.90;;;;;;2113777;67;20352;-78
2022/04/09 03:50:46;;;;;;;12.52;1.80;;;3.00;99.90;;;;;;2117333;67;20213;-77
2022/04/09 03:53:28;;;;;;;8.73;2.10;;;3.00;99.90;;;;;;2105157;68;20186;-77
2022/04/09 03:56:12;;;;;;;4.30;1.80;;;3.00;99.90;;;;;;2093751;68;20392;-77
2022/04/09 03:58:57;;;;;;;5.65;1.95;;;3.00;99.90;;;;;;2102563;68;20561;-78
2022/04/09 04:01:41;;;;;;;5.35;1.80;;;3.00;99.90;;;;;;2103478;68;20255;-78
2022/04/09 04:04:27;;;;;;;4.90;1.60;;;3.00;99.90;;;;;;2105166;67;20295;-77
2022/04/09 04:07:13;;;;;;;6.38;2.08;;;2.90;99.90;;;;;;2112882;67;20420;-77
2022/04/09 04:10:05;;;;;;;7.53;2.03;;;2.80;99.90;;;;;;2111126;67;20207;-77
2022/04/09 04:12:49;;;;;;;7.63;2.60;;;2.80;99.90;;;;;;2091762;68;20292;-77
2022/04/09 04:15:34;;;;;;;7.38;1.80;;;2.80;99.90;;;;;;2104693;67;20185;-77
2022/04/09 04:18:16;;;;;;;8.15;2.03;;;2.90;99.90;;;;;;2121914;67;20896;-77
2022/04/09 04:20:59;;;;;;;8.35;2.75;;;3.00;99.90;;;;;;2118771;67;20271;-77
2022/04/09 04:23:41;;;;;;;8.35;2.40;;;3.00;99.90;;;;;;2119627;67;20424;-76
2022/04/09 04:26:23;;;;;;;10.45;1.92;;;3.10;99.90;;;;;;2119173;67;20652;-77
2022/04/09 04:29:06;;;;;;;12.02;2.17;;;3.10;99.90;;;;;;2125692;67;20259;-77
2022/04/09 04:31:48;;;;;;;8.95;1.80;;;3.10;99.90;;;;;;2119163;67;20614;-77
2022/04/09 04:34:31;;;;;;;6.47;1.85;;;3.00;99.90;;;;;;2133620;67;20197;-77
2022/04/09 04:37:17;;;;;;;12.55;1.85;;;3.00;99.90;;;;;;2135780;67;20196;-77
2022/04/09 04:40:03;;;;;;;5.32;1.70;;;2.90;99.90;;;;;;2135231;67;20758;-77
2022/04/09 04:42:45;;;;;;;8.73;2.13;;;2.90;99.90;;;;;;2133022;67;20259;-77
2022/04/09 04:45:32;;;;;;;4.88;1.85;;;2.90;99.90;;;;;;2126195;67;20756;-76
2022/04/09 04:48:20;;;;;;;8.15;1.80;;;2.80;99.90;;;;;;2126319;67;20305;-77
2022/04/09 04:51:03;;;;;;;6.13;2.13;;;2.80;99.90;;;;;;2108351;67;20606;-77
2022/04/09 04:53:48;;;;;;;4.93;1.55;;;2.70;99.90;;;;;;2111187;67;20308;-78
2022/04/09 04:56:30;;;;;;;8.50;1.98;;;2.70;99.90;;;;;;2117819;67;20315;-77
2022/04/09 04:59:12;;;;;;;11.38;1.80;;;2.70;99.90;;;;;;2118367;67;20343;-77
2022/04/09 05:01:54;;;;;;;6.35;2.00;;;2.70;99.90;;;;;;2112455;67;20344;-78
2022/04/09 05:04:36;;;;;;;8.10;1.60;;;2.70;99.90;;;;;;2102578;68;20182;-77
2022/04/09 05:07:23;;;;;;;11.23;2.20;;;2.70;99.90;;;;;;2112930;67;20189;-76
2022/04/09 05:10:05;;;;;;;9.10;2.13;;;2.70;99.90;;;;;;2124338;67;20311;-76
2022/04/09 05:12:58;;;;;;;7.32;1.95;;;2.80;99.90;;;;;;2119256;67;20168;-77
2022/04/09 05:15:48;;;;;;;7.82;1.88;;;2.80;99.90;;;;;;2112942;67;20192;-76
2022/04/09 05:18:27;;;;;;;4.30;1.70;;;2.90;99.90;;;;;;2118295;67;20403;-77
2022/04/09 05:21:06;;;;;;;8.13;2.03;;;3.10;99.90;;;;;;2111802;67;20209;-76
2022/04/09 05:23:43;;;;;;;7.43;1.80;;;3.30;99.90;;;;;;2112245;67;20181;-77
2022/04/09 05:26:33;;;;;;;7.00;1.83;;;3.50;99.90;;;;;;2105504;68;20337;-76
2022/04/09 05:29:12;;;;;;;12.98;1.75;;;3.50;99.90;;;;;;2105465;67;20697;-77
2022/04/09 05:31:50;;;;;;;8.88;1.95;;;3.50;99.90;;;;;;2112419;67;20185;-78
2022/04/09 05:34:43;;;;;;;11.75;3.10;;;3.50;99.90;;;;;;2136165;66;20263;-78
2022/04/09 05:37:22;;;;;;;6.40;2.10;;;3.50;99.90;;;;;;2155235;65;20266;-78
2022/04/09 05:40:12;;;;;;;4.88;1.45;;;3.50;99.90;;;;;;2174148;65;20318;-77
2022/04/09 05:42:49;;;;;;;6.85;2.30;;;3.60;99.90;;;;;;2174043;65;20253;-77
2022/04/09 05:45:40;;;;;;;10.32;2.47;;;3.70;99.90;;;;;;2176520;65;20618;-76
2022/04/09 05:48:18;;;;;;;9.13;2.03;;;3.90;99.90;;;;;;2188469;65;20210;-79
2022/04/09 05:50:58;;;;;;;4.93;1.70;;;3.80;99.90;;;;;;2187034;65;20175;-82
2022/04/09 05:53:50;;;;;;;7.55;1.73;;;3.80;99.90;;;;;;2170253;65;20191;-80
2022/04/09 05:56:27;;;;;;;6.80;1.92;;;3.70;99.90;;;;;;2176306;65;20278;-81
2022/04/09 05:59:03;;;;;;;6.25;2.03;;;3.60;99.90;;;;;;2181816;65;20207;-81
2022/04/09 06:01:42;;;;;;;6.88;1.80;;;3.40;99.90;;;;;;2184930;65;20323;-81
2022/04/09 06:04:22;;;;;;;5.82;1.30;;;3.20;99.90;;;;;;2185034;65;20424;-80
2022/04/09 06:07:01;;;;;;;1.55;0.95;;;3.10;99.90;;;;;;2184003;65;20315;-80
2022/04/09 06:09:39;;;;;;;5.43;1.48;;;3.10;99.90;;;;;;2182709;65;20175;-79
2022/04/09 06:12:24;;;;;;;3.65;1.50;;;3.10;99.90;;;;;;2183448;65;20266;-80
2022/04/09 06:15:08;;;;;;;8.02;2.10;;;3.70;99.90;;;;;;2176461;65;20331;-79
2022/04/09 06:18:11;;;;;;;8.20;2.08;;;3.20;99.90;;;;;;2183569;65;20296;-79
2022/04/09 06:20:55;;;;;;;7.88;2.30;;;3.10;99.90;;;;;;2176616;65;20316;-79
2022/04/09 06:23:46;;;;;;;10.90;2.75;;;3.10;99.90;;;;;;2163120;66;20241;-78
2022/04/09 06:26:31;;;;;;;11.10;3.10;;;3.20;99.90;;;;;;2149748;66;20221;-78
2022/04/09 06:29:16;;;;;;;10.48;3.50;;;3.40;99.90;;;;;;2126309;67;20377;-79
2022/04/09 06:31:58;;;;;;;13.88;3.15;;;3.50;99.90;;;;;;2121889;67;20401;-79
2022/04/09 06:34:40;;;;;;;8.73;2.63;;;3.70;99.90;;;;;;2118656;67;20313;-79
2022/04/09 06:37:22;;;;;;;9.82;2.80;;;4.40;99.90;;;;;;2112756;67;20332;-79
2022/04/09 06:40:09;;;;;;;13.32;2.53;;;4.00;99.90;;;;;;2105391;68;20592;-78
2022/04/09 06:42:51;;;;;;;9.45;3.00;;;4.20;99.90;;;;;;2095108;68;20184;-80
2022/04/09 06:45:34;;;;;;;9.30;2.45;;;4.40;99.90;;;;;;2089218;68;20230;-81
2022/04/09 06:48:16;;;;;;;9.95;2.80;;;4.40;99.90;;;;;;2086287;68;20192;-78
2022/04/09 06:50:59;;;;;;;9.13;2.97;;;4.40;99.90;;;;;;2088467;68;20340;-79
2022/04/09 06:53:43;;;;;;;14.30;3.30;;;4.50;99.90;;;;;;2101536;68;20238;-77
2022/04/09 06:56:24;;;;;;;8.88;2.72;;;4.50;99.90;;;;;;2098171;67;20198;-77
2022/04/09 06:59:11;;;;;;;7.10;2.25;;;4.40;99.90;;;;;;2105642;67;20638;-78
2022/04/09 07:01:58;;;;;;;10.48;2.40;;;4.40;99.90;;;;;;2113588;67;20918;-77
2022/04/09 07:04:46;;;;;;;7.55;2.45;;;4.40;99.90;;;;;;2122096;67;20898;-77
2022/04/09 07:07:27;;;;;;;;;;;4.50;99.90;;;;;;2108081;67;20268;-77
2022/04/09 07:10:12;;;;;;;11.40;2.17;;;4.60;99.90;;;;;;2108005;67;20225;-77
2022/04/09 07:12:55;;;;;;;5.80;1.75;;;4.80;99.90;;;;;;2120356;67;20321;-77
2022/04/09 07:15:38;;;;;;;10.00;1.80;;;5.00;99.90;;;;;;2104011;68;20347;-78
2022/04/09 07:18:24;;;;;;;5.35;2.25;;;5.30;99.90;;;;;;2111556;67;20284;-77
2022/04/09 07:21:11;;;;;;;5.03;1.60;;;5.10;99.90;;;;;;2112364;67;20606;-77
2022/04/09 07:23:55;;;;;;;8.77;2.27;;;5.20;99.90;;;;;;2112612;67;21028;-75
2022/04/09 07:26:39;;;;;;;11.48;1.63;;;5.30;99.90;;;;;;2118108;67;20328;-78
2022/04/09 07:29:25;;;;;;;9.63;1.63;;;5.50;99.90;;;;;;2118812;67;20333;-76
2022/04/09 07:32:08;;;;;;;6.28;1.73;;;5.60;99.90;;;;;;2119023;67;20697;-77
2022/04/09 07:34:51;;;;;;;7.18;1.50;;;5.60;99.90;;;;;;2118603;67;20235;-76
2022/04/09 07:37:33;;;;;;;7.22;2.20;;;5.60;99.90;;;;;;2125938;67;20665;-75
2022/04/09 07:40:15;;;;;;;6.60;1.80;;;5.70;99.90;;;;;;2126644;67;20721;-76
2022/04/09 07:43:01;;;;;;;5.30;1.30;;;5.70;99.90;;;;;;2126272;67;20441;-77
2022/04/09 07:45:46;;;;;;;9.60;1.95;;;5.80;99.90;;;;;;2132816;67;20168;-76
2022/04/09 07:48:29;;;;;;;3.78;1.08;;;6.00;99.90;;;;;;2146709;66;20247;-77
2022/04/09 07:51:11;;;;;;;7.05;1.40;;;6.20;99.90;;;;;;2143778;66;20282;-77
2022/04/09 07:53:55;;;;;;;6.00;1.85;;;6.20;99.90;;;;;;2146859;66;20263;-76
2022/04/09 07:56:42;;;;;;;5.70;1.55;;;6.10;99.90;;;;;;2125483;67;20442;-78
2022/04/09 07:59:27;;;;;;;9.18;1.67;;;6.10;99.90;;;;;;2125170;67;20338;-77
2022/04/09 08:02:10;;;;;;;5.22;1.65;;;6.10;99.90;;;;;;2132871;67;20357;-77
2022/04/09 08:04:52;;;;;;;8.32;2.30;;;6.20;99.90;;;;;;2143841;66;20366;-77
2022/04/09 08:07:35;;;;;;;8.30;1.88;;;6.20;99.90;;;;;;2146216;66;20174;-77
2022/04/09 08:10:18;;;;;;;5.32;1.58;;;6.30;99.90;;;;;;2132479;67;20381;-77
2022/04/09 08:13:00;;;;;;;9.80;2.03;;;6.50;99.90;;;;;;2132929;67;20201;-77
2022/04/09 08:15:43;;;;;;;8.82;1.92;;;6.90;99.90;;;;;;2134020;67;20195;-76
2022/04/09 08:18:27;;;;;;;6.70;1.52;;;7.40;99.90;;;;;;2135318;67;20241;-76
2022/04/09 08:21:11;;;;;;;10.70;1.60;;;7.10;99.90;;;;;;2127472;67;20208;-76
2022/04/09 08:23:57;;;;;;;8.88;1.65;;;7.10;99.90;;;;;;2120795;67;20288;-75
2022/04/09 08:26:42;;;;;;;6.97;1.77;;;7.00;99.90;;;;;;2111776;67;20311;-77
2022/04/09 08:29:27;;;;;;;10.93;2.28;;;7.10;99.90;;;;;;2094642;68;20332;-77
2022/04/09 08:32:10;;;;;;;5.35;1.35;;;7.30;99.90;;;;;;2084850;68;20192;-77
2022/04/09 08:34:54;;;;;;;5.50;1.90;;;7.50;99.90;;;;;;2091279;68;20175;-76
2022/04/09 08:37:42;;;;;;;6.03;1.60;;;7.60;99.90;;;;;;2091592;68;20345;-76
2022/04/09 08:40:28;;;;;;;9.38;2.17;;;7.60;99.90;;;;;;2106299;67;20331;-76
2022/04/09 08:43:14;;;;;;;6.78;2.05;;;7.60;99.90;;;;;;2119036;67;20827;-76
2022/04/09 08:45:57;;;;;;;7.03;1.75;;;7.80;99.90;;;;;;2114906;67;20342;-76
2022/04/09 08:48:40;;;;;;;8.02;1.88;;;8.00;99.90;;;;;;2117974;67;21167;-78
2022/04/09 08:51:23;;;;;;;7.32;1.80;;;8.20;99.90;;;;;;2119932;67;20298;-76
2022/04/09 08:54:10;;;;;;;7.93;2.22;;;8.10;99.90;;;;;;2123571;67;20627;-79
2022/04/09 08:56:52;;;;;;;3.83;0.80;;;8.30;99.90;;;;;;2126382;67;20794;-76
2022/04/09 08:59:34;;;;;;;3.50;0.80;;;8.20;99.90;;;;;;2145873;66;20321;-77
2022/04/09 09:02:16;;;;;;;1.95;0.73;;;7.70;99.90;;;;;;2131758;67;20648;-77
2022/04/09 09:04:59;;;;;;;2.70;0.75;;;7.40;99.90;;;;;;2124630;67;20210;-78
2022/04/09 09:07:46;;;;;;;2.03;0.70;;;7.00;99.90;;;;;;2120475;67;20228;-77
2022/04/09 09:10:27;;;;;;;4.93;0.80;;;6.60;99.90;;;;;;2118050;67;20224;-77
2022/04/09 09:13:13;;;;;;;2.72;0.50;;;6.40;99.90;;;;;;2113025;67;20617;-77
2022/04/09 09:16:02;;;;;;;2.47;0.70;;;6.10;99.90;;;;;;2110996;67;20268;-77
2022/04/09 09:18:51;;;;;;;2.65;0.57;;;6.00;99.90;;;;;;2111806;67;20424;-77
2022/04/09 09:21:36;;;;;;;1.58;0.68;;;6.00;99.90;;;;;;2110335;67;20236;-77
2022/04/09 09:24:21;;;;;;;2.97;0.70;;;6.00;99.90;;;;;;2125318;67;20739;-76
2022/04/09 09:27:04;;;;;;;3.35;0.70;;;6.10;99.90;;;;;;2108273;67;20193;-77
2022/04/09 09:29:55;;;;;;;4.05;0.90;;;6.20;99.90;;;;;;2098768;67;20271;-77
2022/04/09 09:32:41;;;;;;;3.97;0.90;;;6.40;99.90;;;;;;2104533;68;20216;-76
2022/04/09 09:35:23;;;;;;;4.72;1.10;;;6.60;99.90;;;;;;2102317;68;20211;-76
2022/04/09 09:38:29;;;;;;;7.57;1.38;;;6.90;99.90;;;;;;2105380;67;20236;-76
2022/04/09 09:41:32;;;;;;;6.88;1.55;;;7.40;99.90;;;;;;2103540;68;20359;-76
2022/04/09 09:44:14;;;;;;;6.15;1.30;;;8.00;99.90;;;;;;2105234;67;20255;-76
2022/04/09 09:47:20;;;;;;;6.38;1.25;;;8.30;99.90;;;;;;2113889;67;20280;-76
2022/04/09 09:50:12;;;;;;;6.60;1.15;;;8.10;99.90;;;;;;2120074;67;20181;-80
2022/04/09 09:53:05;;;;;;;6.03;1.10;;;7.30;99.90;;;;;;2125134;67;20269;-79
2022/04/09 09:55:50;;;;;;;4.43;0.77;;;6.60;99.90;;;;;;2123225;67;20729;-78
2022/04/09 09:58:37;;;;;;;2.05;0.50;;;6.90;99.90;;;;;;2122493;67;20342;-77
2022/04/09 10:01:20;;;;;;;1.20;0.50;;;6.10;99.90;;;;;;2126681;67;20247;-78
2022/04/09 10:04:05;;;;;;;2.58;0.57;;;6.20;99.90;;;;;;2133728;67;20176;-78
2022/04/09 10:06:47;;;;;;;0.70;0.30;;;6.40;99.90;;;;;;2130857;67;20230;-77
2022/04/09 10:09:29;;;;;;;0.90;0.10;;;6.60;99.90;;;;;;2133286;67;20677;-77
2022/04/09 10:12:18;;;;;;;1.00;0.30;;;6.70;99.90;;;;;;2118870;67;20193;-77
2022/04/09 10:15:00;;;;;;;0.40;0.20;;;6.70;99.90;;;;;;2113816;67;20672;-77
2022/04/09 10:17:42;;;;;;;0.40;0.20;;;6.70;99.90;;;;;;2125797;67;20227;-76
2022/04/09 10:20:26;;;;;;;0.50;0.15;;;6.60;99.90;;;;;;2139390;66;20209;-76
2022/04/09 10:23:09;;;;;;;1.17;0.55;;;6.50;99.90;;;;;;2140451;66;20182;-76
2022/04/09 10:25:54;;;;;;;3.30;0.73;;;6.50;99.90;;;;;;2139351;66;20241;-78
2022/04/09 10:28:40;;;;;;;4.32;0.88;;;6.60;99.90;;;;;;2140220;67;20683;-75
2022/04/09 10:31:22;;;;;;;1.55;0.63;;;6.70;99.90;;;;;;2134339;67;20172;-77
2022/04/09 10:34:06;;;;;;;3.92;0.80;;;6.90;99.90;;;;;;2133324;67;20581;-77
2022/04/09 10:36:48;;;;;;;2.33;0.80;;;7.00;99.90;;;;;;2124965;67;20405;-77
2022/04/09 10:39:47;;;;;;;3.60;1.00;;;7.20;99.90;;;;;;2117012;67;20201;-76
2022/04/09 10:42:49;;;;;;;2.22;0.63;;;7.80;99.90;;;;;;2103087;67;20322;-76
2022/04/09 10:45:53;;;;;;;3.97;1.10;;;8.30;99.90;;;;;;2118977;67;20188;-76
2022/04/09 10:48:42;;;;;;;1.20;0.57;;;8.70;99.90;;;;;;2132098;67;20332;-75
2022/04/09 10:51:24;;;;;;;4.03;0.80;;;8.70;99.90;;;;;;2131920;67;20275;-75
2022/04/09 10:54:21;;;;;;;2.00;0.80;;;8.70;99.90;;;;;;2120373;67;20301;-76
2022/04/09 10:57:19;;;;;;;2.88;1.00;;;8.90;99.90;;;;;;2125275;67;20227;-76
2022/04/09 11:00:07;;;;;;;2.00;0.82;;;9.20;99.90;;;;;;2114395;67;20209;-75
2022/04/09 11:03:10;;;;;;;4.13;0.80;;;9.60;99.90;;;;;;2130249;67;20217;-76
2022/04/09 11:06:11;;;;;;;5.82;1.33;;;10.00;99.90;;;;;;2150614;66;20782;-77
2022/04/09 11:09:00;;;;;;;3.60;1.38;;;10.60;99.90;;;;;;2150640;66;20258;-77
2022/04/09 11:11:46;;;;;;;4.88;1.52;;;11.20;99.90;;;;;;2133712;66;20333;-76
2022/04/09 11:14:31;;;;;;;3.42;1.08;;;11.40;99.90;;;;;;2128122;67;20603;-76
2022/04/09 11:17:22;;;;;;;3.63;1.10;;;12.00;99.90;;;;;;2131271;67;20347;-76
2022/04/09 11:20:11;;;;;;;5.80;1.25;;;11.90;98.80;;;;;;2131644;67;20224;-76
2022/04/09 11:22:56;;;;;;;3.70;0.80;;;11.60;98.70;;;;;;2144072;66;20407;-76
2022/04/09 11:25:42;;;;;;;2.95;1.30;;;11.30;96.70;;;;;;2134697;67;20175;-76
2022/04/09 11:28:26;;;;;;;6.45;1.30;;;10.70;96.50;;;;;;2125409;67;20703;-77
2022/04/09 11:31:09;;;;;;;4.78;1.33;;;10.50;98.20;;;;;;2122633;67;20923;-76
2022/04/09 11:33:56;;;;;;;5.78;1.00;;;11.30;98.90;;;;;;2128766;67;20631;-76
2022/04/09 11:36:27;;;;;;;5.05;1.25;;;12.30;94.50;;;;;;2133636;66;20407;-76
2022/04/09 11:39:05;;;;;;;5.85;1.48;;;12.60;94.50;;;;;;2132213;67;20180;-75
2022/04/09 11:41:58;;;;;;;2.53;0.90;;;12.20;91.50;;;;;;2134038;67;20247;-75
2022/04/09 11:44:50;;;;;;;2.97;1.17;;;12.30;92.00;;;;;;2140140;67;20687;-77
2022/04/09 11:47:29;;;;;;;6.10;1.33;;;12.80;92.40;;;;;;2142695;66;20951;-76
2022/04/09 11:50:10;;;;;;;4.45;1.55;;;13.50;93.30;;;;;;2155863;66;20727;-77
2022/04/09 11:52:47;;;;;;;2.63;1.02;;;14.30;91.20;;;;;;2169388;66;20224;-77
2022/04/09 11:55:29;;;;;;;3.60;1.13;;;14.50;88.70;;;;;;2170280;65;20180;-77
2022/04/09 11:58:01;;;;;;;6.28;1.33;;;14.00;83.90;;;;;;2177207;65;20694;-76
2022/04/09 12:00:41;;;;;;;;;;;13.50;84.00;;;;;;2190774;65;20185;-76
2022/04/09 12:03:22;;;;;;;3.75;1.02;;;12.70;79.30;;;;;;2214529;64;20071;-76
2022/04/09 12:06:01;;;;;;;3.63;1.30;;;12.30;85.10;;;;;;2229714;64;20262;-76
2022/04/09 12:08:39;;;;;;;6.75;1.42;;;12.90;90.30;;;;;;2231498;64;20199;-77
2022/04/09 12:11:20;;;;;;;3.50;1.42;;;13.50;88.00;;;;;;2224043;64;20172;-78
2022/04/09 12:14:13;;;;;;;5.68;1.83;;;13.90;83.70;;;;;;2223697;64;20185;-76
2022/04/09 12:16:50;;;;;;;5.68;1.23;;;13.50;77.50;;;;;;2223142;64;20205;-77
2022/04/09 12:19:32;;;;;;;2.55;0.90;;;12.90;79.60;;;;;;2223106;64;21001;-75
2022/04/09 12:22:24;;;;;;;2.75;1.08;;;12.80;77.40;;;;;;2198869;65;20415;-76
2022/04/09 12:25:03;;;;;;;2.33;1.08;;;13.60;76.50;;;;;;2198905;65;20229;-76
2022/04/09 12:27:47;;;;;;;2.17;1.00;;;13.50;72.80;;;;;;2192443;65;20158;-76
2022/04/09 12:30:37;;;;;;;3.65;0.90;;;12.90;73.70;;;;;;2200143;65;20337;-76
2022/04/09 12:33:20;;;;;;;3.90;1.10;;;12.80;77.70;;;;;;2191427;65;20440;-76
2022/04/09 12:36:10;;;;;;;3.45;1.02;;;12.50;77.10;;;;;;2183989;65;20194;-76
2022/04/09 12:38:53;;;;;;;3.08;0.90;;;12.90;77.80;;;;;;2183698;65;20689;-75
2022/04/09 12:41:55;;;;;;;4.70;1.23;;;13.90;78.10;;;;;;2169052;66;20377;-76
2022/04/09 12:44:40;;;;;;;5.18;1.00;;;14.40;76.60;;;;;;2161378;66;20244;-77
2022/04/09 12:47:23;;;;;;;4.70;1.30;;;14.20;76.40;;;;;;2139948;67;20308;-77
2022/04/09 12:50:18;;;;;;;3.08;1.20;;;14.10;75.80;;;;;;2139771;67;20362;-76
2022/04/09 12:53:02;;;;;;;5.25;1.17;;;13.80;77.60;;;;;;2139771;67;20183;-77
2022/04/09 12:55:53;;;;;;;5.87;1.00;;;13.90;74.00;;;;;;2125436;67;20283;-76
2022/04/09 12:58:40;;;;;;;4.15;1.20;;;13.90;75.00;;;;;;2111346;67;20343;-76
2022/04/09 13:01:23;;;;;;;3.00;1.45;;;14.20;71.50;;;;;;2099961;67;20471;-77
2022/04/09 13:04:28;;;;;;;2.50;1.10;;;14.10;71.00;;;;;;2118202;67;20701;-76
2022/04/09 13:07:12;;;;;;;5.97;1.58;;;13.70;72.50;;;;;;2107421;67;20210;-76
2022/04/09 13:09:55;;;;;;;6.78;1.60;;;14.20;74.10;;;;;;2107943;67;20189;-77
2022/04/09 13:12:43;;;;;;;4.78;1.20;;;15.20;73.40;;;;;;2108862;67;20269;-76
2022/04/09 13:15:25;;;;;;;4.95;1.30;;;16.00;65.80;;;;;;2104737;68;20469;-77
2022/04/09 13:18:10;;;;;;;2.97;1.23;;;16.80;65.10;;;;;;2099425;67;20817;-76
2022/04/09 13:20:52;;;;;;;1.77;0.80;;;17.50;62.90;;;;;;2093543;68;20329;-76
2022/04/09 13:23:35;;;;;;;3.67;1.05;;;16.60;60.50;;;;;;2105173;68;20414;-76
2022/04/09 13:26:20;;;;;;;;;;;15.70;61.20;;;;;;2099513;68;20403;-77
2022/04/09 13:29:02;;;;;;;3.95;0.88;;;14.90;62.10;;;;;;2098567;68;20140;-76
2022/04/09 13:31:46;;;;;;;2.78;1.00;;;14.20;64.40;;;;;;2082837;68;20204;-77
2022/04/09 13:34:27;;;;;;;3.75;1.00;;;13.70;64.90;;;;;;2075066;69;20280;-76
2022/04/09 13:37:09;;;;;;;1.88;0.68;;;14.10;66.60;;;;;;2080082;68;20347;-76
2022/04/09 13:39:51;;;;;;;4.47;0.80;;;14.40;66.10;;;;;;2091897;68;20322;-76
2022/04/09 13:42:35;;;;;;;2.75;0.93;;;14.20;64.00;;;;;;2098397;68;20626;-77
2022/04/09 13:45:19;;;;;;;2.25;0.60;;;13.90;63.30;;;;;;2095695;68;20259;-77
2022/04/09 13:48:03;;;;;;;2.20;0.55;;;14.90;62.40;;;;;;2090365;68;20203;-75
2022/04/09 13:50:48;;;;;;;2.53;0.60;;;15.70;61.40;;;;;;2097660;68;20218;-75
2022/04/09 13:53:31;;;;;;;2.72;0.80;;;16.30;58.40;;;;;;2089154;68;20357;-75
2022/04/09 13:56:14;;;;;;;1.60;0.68;;;17.20;57.20;;;;;;2082881;68;20184;-76
2022/04/09 13:58:59;;;;;;;2.75;0.63;;;18.20;55.30;;;;;;2085212;68;20231;-76
2022/04/09 14:01:42;;;;;;;3.45;0.70;;;17.30;53.70;;;;;;2086251;68;20262;-76
2022/04/09 14:04:25;;;;;;;4.50;0.98;;;16.10;56.40;;;;;;2087093;68;20180;-75
2022/04/09 14:07:06;;;;;;;3.00;0.80;;;17.00;56.50;;;;;;2115557;67;20181;-76
2022/04/09 14:09:48;;;;;;;2.55;0.85;;;17.20;56.90;;;;;;2117099;67;20194;-75
2022/04/09 14:12:34;;;;;;;5.35;1.00;;;17.50;57.40;;;;;;2096749;68;20195;-76
2022/04/09 14:15:17;;;;;;;2.45;0.90;;;18.30;56.10;;;;;;2074263;69;20346;-75
2022/04/09 14:18:01;;;;;;;3.47;1.33;;;18.80;53.40;;;;;;2069494;69;20314;-75
2022/04/09 14:20:43;;;;;;;2.35;1.23;;;19.20;53.30;;;;;;2055917;69;20187;-75
2022/04/09 14:23:25;;;;;;;3.42;1.50;;;20.00;53.90;;;;;;2063626;69;20249;-76
2022/04/09 14:26:07;;;;;;;2.50;1.17;;;19.20;52.70;;;;;;2062669;69;20302;-76